createdAt,value
2023-04-03T00:00:50.423Z,14.07
2023-04-03T00:03:18.293Z,15.50
2023-04-03T00:05:46.094Z,14.43
2023-04-03T00:08:13.741Z,14.87
2023-04-03T00:10:42.624Z,13.67
2023-04-03T00:13:11.370Z,13.30
2023-04-03T00:15:39.609Z,14.03
2023-04-03T00:18:07.920Z,13.50
2023-04-03T00:20:36.045Z,11.93
2023-04-03T00:23:04.349Z,13.23
2023-04-03T00:25:31.918Z,10.07
2023-04-03T00:28:01.164Z,9.77
2023-04-03T00:30:28.673Z,11.30
2023-04-03T00:32:56.493Z,8.17
2023-04-03T00:35:25.378Z,8.93
2023-04-03T00:37:54.013Z,8.70
2023-04-03T00:40:23.683Z,6.20
2023-04-03T00:42:53.929Z,8.63
2023-04-03T00:45:31.682Z,6.90
2023-04-03T00:48:01.405Z,7.53
2023-04-03T00:50:31.627Z,6.87
2023-04-03T00:52:59.815Z,5.47
2023-04-03T00:55:27.406Z,5.70
2023-04-03T00:57:56.882Z,6.23
2023-04-03T01:00:27.036Z,5.67
2023-04-03T01:02:55.643Z,5.60
2023-04-03T01:05:24.009Z,6.00
2023-04-03T01:07:53.113Z,6.20
2023-04-03T01:10:21.807Z,6.37
2023-04-03T01:12:51.148Z,6.33
2023-04-03T01:15:21.087Z,6.57
2023-04-03T01:17:51.825Z,6.97
2023-04-03T01:20:42.404Z,7.13
2023-04-03T01:23:24.451Z,8.23
2023-04-03T01:25:53.640Z,7.40
2023-04-03T01:28:24.092Z,6.73
2023-04-03T01:30:59.626Z,7.37
2023-04-03T01:33:28.470Z,7.93
2023-04-03T01:35:56.228Z,6.33
2023-04-03T01:38:23.828Z,6.60
2023-04-03T01:40:51.566Z,7.00
2023-04-03T01:43:19.091Z,7.23
2023-04-03T01:45:47.402Z,8.17
2023-04-03T01:48:15.224Z,7.03
2023-04-03T01:50:44.043Z,7.07
2023-04-03T01:53:11.527Z,7.40
2023-04-03T01:55:39.015Z,7.03
2023-04-03T01:58:06.473Z,7.10
2023-04-03T02:00:34.208Z,6.40
2023-04-03T02:03:02.137Z,6.93
2023-04-03T02:05:29.639Z,7.03
2023-04-03T02:07:58.469Z,6.33
2023-04-03T02:10:25.964Z,7.53
2023-04-03T02:12:53.468Z,6.70
2023-04-03T02:15:20.995Z,6.93
2023-04-03T02:17:48.601Z,7.00
2023-04-03T02:20:16.178Z,6.27
2023-04-03T02:22:43.916Z,6.97
2023-04-03T02:25:13.470Z,6.47
2023-04-03T02:27:40.966Z,6.40
2023-04-03T02:30:11.553Z,6.50
2023-04-03T02:32:39.162Z,5.87
2023-04-03T02:35:07.441Z,6.67
2023-04-03T02:37:34.932Z,6.43
2023-04-03T02:40:02.524Z,6.63
2023-04-03T02:42:31.695Z,5.87
2023-04-03T02:45:01.282Z,6.10
2023-04-03T02:47:29.091Z,5.63
2023-04-03T02:49:56.630Z,6.20
2023-04-03T02:52:24.230Z,6.53
2023-04-03T02:54:51.705Z,6.03
2023-04-03T02:57:20.621Z,5.40
2023-04-03T02:59:49.467Z,5.80
2023-04-03T03:02:16.931Z,6.03
2023-04-03T03:04:44.550Z,4.90
2023-04-03T03:07:12.096Z,4.47
2023-04-03T03:09:39.560Z,5.23
2023-04-03T03:12:07.280Z,5.23
2023-04-03T03:14:34.791Z,5.00
2023-04-03T03:17:03.616Z,6.00
2023-04-03T03:19:31.079Z,4.50
2023-04-03T03:21:58.850Z,4.90
2023-04-03T03:24:26.318Z,4.97
2023-04-03T03:26:53.785Z,5.00
2023-04-03T03:29:21.510Z,6.27
2023-04-03T03:31:49.015Z,6.70
2023-04-03T03:34:17.907Z,12.47
2023-04-03T03:36:45.775Z,34.33
2023-04-03T03:39:13.435Z,18.87
2023-04-03T03:41:40.908Z,34.23
2023-04-03T03:44:08.397Z,22.33
2023-04-03T03:46:36.109Z,9.83
2023-04-03T03:49:03.630Z,8.17
2023-04-03T03:51:32.466Z,13.27
2023-04-03T03:53:59.956Z,10.73
2023-04-03T03:56:27.473Z,30.63
2023-04-03T03:58:57.067Z,18.20
2023-04-03T04:01:24.847Z,30.07
2023-04-03T04:03:52.432Z,24.03
2023-04-03T04:06:19.985Z,12.67
2023-04-03T04:08:48.910Z,14.60
2023-04-03T04:11:16.605Z,10.23
2023-04-03T04:13:44.065Z,24.57
2023-04-03T04:16:11.652Z,27.93
2023-04-03T04:18:39.209Z,20.73
2023-04-03T04:21:06.788Z,72.50
2023-04-03T04:23:34.278Z,80.50
2023-04-03T04:26:03.082Z,65.20
2023-04-03T04:28:30.702Z,49.07
2023-04-03T04:30:58.195Z,67.77
2023-04-03T04:33:26.507Z,75.13
2023-04-03T04:35:54.149Z,75.00
2023-04-03T04:38:21.696Z,89.63
2023-04-03T04:40:49.726Z,149.77
2023-04-03T04:43:19.047Z,90.57
2023-04-03T04:45:46.536Z,125.90
2023-04-03T04:48:14.090Z,148.77
2023-04-03T04:50:41.581Z,134.27
2023-04-03T04:53:09.498Z,154.40
2023-04-03T04:55:37.217Z,194.73
2023-04-03T04:58:04.849Z,172.50
2023-04-03T05:00:33.680Z,164.03
2023-04-03T05:03:01.163Z,175.13
2023-04-03T05:05:28.638Z,111.00
2023-04-03T05:07:56.163Z,177.80
2023-04-03T05:10:23.789Z,199.73
2023-04-03T05:12:51.301Z,202.37
2023-04-03T05:15:18.792Z,207.23
2023-04-03T05:17:47.634Z,101.20
2023-04-03T05:20:15.456Z,99.93
2023-04-03T05:22:42.910Z,62.17
2023-04-03T05:25:11.015Z,42.53
2023-04-03T05:27:38.494Z,18.83
2023-04-03T05:30:07.041Z,22.90
2023-04-03T05:32:34.733Z,13.63
2023-04-03T05:35:03.643Z,25.03
2023-04-03T05:37:31.106Z,14.73
2023-04-03T05:39:58.728Z,8.77
2023-04-03T05:42:26.400Z,10.37
2023-04-03T05:44:53.900Z,5.50
2023-04-03T05:47:21.470Z,7.00
2023-04-03T05:49:49.418Z,5.13
2023-04-03T05:52:23.330Z,5.00
2023-04-03T05:54:51.017Z,5.77
2023-04-03T05:57:19.010Z,5.93
2023-04-03T05:59:47.396Z,6.87
2023-04-03T06:02:16.550Z,6.10
2023-04-03T06:04:44.294Z,5.63
2023-04-03T06:07:14.982Z,5.17
2023-04-03T06:09:44.443Z,5.20
2023-04-03T06:12:12.250Z,5.30
2023-04-03T06:14:39.762Z,5.50
2023-04-03T06:17:07.434Z,7.70
2023-04-03T06:19:35.440Z,6.03
2023-04-03T06:22:03.862Z,6.53
2023-04-03T06:24:31.917Z,12.30
2023-04-03T06:27:01.150Z,7.10
2023-04-03T06:29:28.654Z,9.30
2023-04-03T06:31:56.436Z,13.13
2023-04-03T06:34:24.064Z,14.67
2023-04-03T06:36:52.144Z,8.77
2023-04-03T06:39:23.015Z,9.93
2023-04-03T06:41:51.030Z,10.53
2023-04-03T06:44:19.926Z,12.47
2023-04-03T06:46:47.767Z,13.37
2023-04-03T06:49:16.029Z,12.03
2023-04-03T06:51:43.543Z,9.60
2023-04-03T06:54:11.175Z,7.83
2023-04-03T06:56:38.733Z,9.40
2023-04-03T06:59:06.217Z,13.80
2023-04-03T07:01:35.087Z,12.60
2023-04-03T07:04:03.169Z,15.63
2023-04-03T07:06:31.914Z,15.00
2023-04-03T07:08:59.372Z,13.77
2023-04-03T07:11:27.211Z,13.13
2023-04-03T07:13:54.842Z,13.53
2023-04-03T07:16:22.461Z,11.00
2023-04-03T07:18:51.875Z,11.73
2023-04-03T07:21:19.333Z,7.03
2023-04-03T07:23:46.841Z,6.07
2023-04-03T07:26:14.602Z,6.27
2023-04-03T07:28:42.439Z,6.67
2023-04-03T07:31:14.347Z,6.27
2023-04-03T07:33:43.580Z,6.33
2023-04-03T07:36:16.607Z,10.23
2023-04-03T07:38:44.157Z,12.37
2023-04-03T07:41:15.929Z,12.63
2023-04-03T07:43:43.524Z,12.17
2023-04-03T07:46:11.661Z,9.90
2023-04-03T07:48:39.253Z,9.30
2023-04-03T07:51:07.600Z,16.10
2023-04-03T07:53:36.735Z,15.40
2023-04-03T07:56:04.542Z,15.10
2023-04-03T07:58:32.286Z,19.40
2023-04-03T08:00:59.783Z,16.93
2023-04-03T08:03:27.544Z,17.57
2023-04-03T08:05:55.367Z,20.83
2023-04-03T08:08:24.657Z,23.93
2023-04-03T08:10:54.647Z,20.63
2023-04-03T08:13:23.144Z,22.13
2023-04-03T08:15:50.686Z,22.77
2023-04-03T08:18:19.344Z,22.20
2023-04-03T08:20:47.145Z,19.03
2023-04-03T08:23:14.912Z,20.83
2023-04-03T08:25:43.637Z,7.33
2023-04-03T08:28:13.277Z,3.37
2023-04-03T08:30:41.871Z,3.20
2023-04-03T08:33:09.494Z,3.53
2023-04-03T08:35:41.696Z,3.30
2023-04-03T08:38:10.032Z,3.27
2023-04-03T08:40:37.538Z,3.60
2023-04-03T08:43:29.729Z,3.67
2023-04-03T08:46:00.739Z,5.33
2023-04-03T08:48:33.005Z,3.67
2023-04-03T08:51:05.457Z,3.30
2023-04-03T08:53:37.132Z,2.97
2023-04-03T08:56:10.181Z,6.40
2023-04-03T08:58:46.625Z,3.70
2023-04-03T09:01:21.653Z,4.67
2023-04-03T09:03:49.221Z,3.37
2023-04-03T09:06:21.672Z,3.60
2023-04-03T09:08:55.326Z,4.83
2023-04-03T09:11:27.646Z,5.27
2023-04-03T09:14:02.076Z,7.00
2023-04-03T09:16:40.992Z,6.70
2023-04-03T09:19:20.647Z,6.43
2023-04-03T09:21:48.198Z,5.57
2023-04-03T09:24:18.258Z,5.03
2023-04-03T09:26:51.419Z,6.57
2023-04-03T09:29:22.982Z,6.37
2023-04-03T09:31:52.354Z,6.20
2023-04-03T09:34:24.362Z,7.90
2023-04-03T09:36:53.951Z,8.83
2023-04-03T09:39:23.325Z,8.87
2023-04-03T09:42:00.423Z,8.47
2023-04-03T09:44:31.863Z,8.57
2023-04-03T09:47:00.469Z,8.53
2023-04-03T09:49:28.238Z,8.93
2023-04-03T09:51:55.717Z,7.33
2023-04-03T09:54:36.930Z,6.87
2023-04-03T09:57:09.925Z,7.53
2023-04-03T09:59:43.215Z,9.40
2023-04-03T10:02:27.027Z,7.30
2023-04-03T10:05:08.395Z,6.73
2023-04-03T10:07:38.609Z,7.60
2023-04-03T10:10:20.961Z,7.23
2023-04-03T10:12:48.841Z,8.13
2023-04-03T10:15:21.052Z,6.87
2023-04-03T10:18:00.372Z,7.00
2023-04-03T10:20:36.333Z,7.43
2023-04-03T10:23:17.956Z,6.83
2023-04-03T10:25:57.823Z,7.23
2023-04-03T10:28:32.948Z,5.43
2023-04-03T10:31:12.569Z,6.20
2023-04-03T10:33:53.252Z,7.07
2023-04-03T10:36:31.012Z,8.47
2023-04-03T10:39:10.853Z,8.43
2023-04-03T10:41:49.228Z,8.47
2023-04-03T10:44:29.723Z,7.10
2023-04-03T10:47:07.688Z,6.10
2023-04-03T10:52:24.294Z,6.27
2023-04-03T10:55:03.056Z,6.57
2023-04-03T10:57:32.174Z,5.77
2023-04-03T11:00:03.596Z,4.68
2023-04-03T11:02:35.013Z,7.53
2023-04-03T11:05:10.208Z,5.70
2023-04-03T11:07:42.471Z,6.87
2023-04-03T11:10:17.914Z,6.13
2023-04-03T11:12:48.935Z,5.63
2023-04-03T11:15:18.849Z,5.93
2023-04-03T11:17:53.535Z,7.57
2023-04-03T11:20:28.669Z,5.63
2023-04-03T11:23:02.250Z,6.20
2023-04-03T11:25:31.712Z,5.90
2023-04-03T11:28:02.653Z,5.83
2023-04-03T11:30:35.631Z,5.70
2023-04-03T11:33:19.246Z,6.43
2023-04-03T11:35:49.329Z,7.03
2023-04-03T11:38:23.851Z,8.47
2023-04-03T11:40:52.160Z,7.47
2023-04-03T11:43:26.712Z,7.30
2023-04-03T11:46:01.715Z,6.77
2023-04-03T11:48:49.861Z,5.27
2023-04-03T11:51:40.598Z,7.27
2023-04-03T11:54:47.248Z,6.43
2023-04-03T11:57:39.993Z,6.50
2023-04-03T12:00:41.342Z,6.77
2023-04-03T12:03:53.840Z,5.83
2023-04-03T12:06:55.759Z,6.47
2023-04-03T12:09:31.379Z,6.90
2023-04-03T12:12:01.418Z,5.47
2023-04-03T12:14:30.758Z,4.93
2023-04-03T12:17:00.803Z,7.13
2023-04-03T12:19:42.549Z,5.17
2023-04-03T12:22:16.140Z,6.17
2023-04-03T12:24:46.777Z,6.35
2023-04-03T12:27:36.460Z,5.22
2023-04-03T12:30:12.798Z,6.35
2023-04-03T12:32:56.273Z,4.45
2023-04-03T12:35:34.979Z,5.50
2023-04-03T12:38:34.449Z,5.70
2023-04-03T12:41:19.899Z,5.65
2023-04-03T12:44:01.407Z,6.77
2023-04-03T12:46:38.395Z,6.40
2023-04-03T12:49:20.072Z,7.77
2023-04-03T12:51:48.722Z,7.27
2023-04-03T12:54:19.725Z,7.63
2023-04-03T12:56:48.569Z,7.77
2023-04-03T12:59:18.346Z,6.23
2023-04-03T13:01:46.425Z,6.63
2023-04-03T13:04:14.354Z,5.80
2023-04-03T13:06:43.466Z,8.70
2023-04-03T13:09:22.643Z,6.07
2023-04-03T13:11:56.702Z,6.37
2023-04-03T13:14:27.106Z,7.43
2023-04-03T13:16:55.898Z,6.40
2023-04-03T13:19:27.557Z,7.07
2023-04-03T13:22:02.025Z,5.60
2023-04-03T13:24:31.216Z,5.72
2023-04-03T13:27:00.316Z,5.88
2023-04-03T13:29:31.952Z,4.60
2023-04-03T13:32:02.249Z,5.95
2023-04-03T13:34:32.544Z,5.28
2023-04-03T13:37:04.235Z,6.35
2023-04-03T13:39:33.675Z,6.97
2023-04-03T13:42:16.484Z,6.25
2023-04-03T13:44:44.306Z,5.32
2023-04-03T13:47:21.138Z,6.00
2023-04-03T13:50:02.018Z,6.53
2023-04-03T13:52:33.498Z,6.63
2023-04-03T13:55:05.848Z,7.67
2023-04-03T13:57:36.949Z,6.97
2023-04-03T14:00:36.466Z,6.67
2023-04-03T14:03:04.206Z,6.40
2023-04-03T14:05:31.828Z,6.33
2023-04-03T14:07:59.897Z,6.03
2023-04-03T14:10:27.389Z,5.57
2023-04-03T14:12:56.684Z,6.72
2023-04-03T14:15:27.099Z,7.73
2023-04-03T14:17:55.386Z,7.53
2023-04-03T14:20:25.556Z,7.20
2023-04-03T14:22:54.620Z,5.88
2023-04-03T14:25:24.550Z,6.15
2023-04-03T14:27:54.680Z,6.60
2023-04-03T14:30:27.622Z,6.30
2023-04-03T14:32:55.649Z,6.20
2023-04-03T14:35:23.637Z,7.10
2023-04-03T14:37:52.616Z,6.13
2023-04-03T14:40:24.610Z,6.80
2023-04-03T14:42:52.545Z,6.33
2023-04-03T14:45:20.320Z,6.57
2023-04-03T14:47:51.516Z,7.70
2023-04-03T14:50:21.943Z,7.33
2023-04-03T14:52:51.041Z,8.67
2023-04-03T14:55:21.158Z,7.77
2023-04-03T14:57:48.848Z,7.67
2023-04-03T15:00:19.072Z,7.60
2023-04-03T15:02:47.309Z,8.27
2023-04-03T15:05:17.637Z,7.67
2023-04-03T15:07:48.813Z,8.47
2023-04-03T15:10:19.262Z,8.47
2023-04-03T15:12:47.770Z,8.77
2023-04-03T15:15:20.638Z,8.60
2023-04-03T15:17:54.627Z,9.30
2023-04-03T15:20:25.829Z,8.93
2023-04-03T15:22:53.587Z,8.27
2023-04-03T15:25:21.081Z,7.87
2023-04-03T15:27:48.875Z,7.43
2023-04-03T15:30:19.273Z,8.10
2023-04-03T15:32:47.450Z,7.47
2023-04-03T15:35:15.125Z,9.53
2023-04-03T15:37:44.050Z,9.17
2023-04-03T15:40:12.526Z,9.90
2023-04-03T15:42:41.011Z,10.17
2023-04-03T15:45:09.968Z,9.83
2023-04-03T15:47:37.784Z,12.43
2023-04-03T15:50:06.949Z,8.77
2023-04-03T15:52:34.597Z,7.87
2023-04-03T15:55:03.536Z,8.00
2023-04-03T16:00:03.545Z,9.33
2023-04-03T16:02:31.195Z,8.73
2023-04-03T16:04:58.777Z,9.90
2023-04-03T16:07:26.339Z,10.53
2023-04-03T16:09:54.057Z,9.67
2023-04-03T16:12:22.876Z,10.90
2023-04-03T16:14:50.326Z,10.57
2023-04-03T16:17:17.839Z,11.80
2023-04-03T16:19:45.354Z,10.83
2023-04-03T16:22:12.910Z,10.20
2023-04-03T16:24:40.453Z,9.97
2023-04-03T16:27:08.030Z,9.57
2023-04-03T16:29:37.203Z,9.10
2023-04-03T16:32:05.101Z,8.63
2023-04-03T16:34:33.675Z,9.20
2023-04-03T16:37:01.790Z,8.53
2023-04-03T16:39:29.353Z,7.97
2023-04-03T16:41:56.837Z,10.97
2023-04-03T16:44:24.340Z,8.33
2023-04-03T16:46:53.203Z,8.20
2023-04-03T16:49:20.779Z,6.93
2023-04-03T16:51:50.328Z,7.50
2023-04-03T16:54:17.806Z,6.63
2023-04-03T16:56:45.380Z,7.80
2023-04-03T16:59:12.867Z,7.37
2023-04-03T17:01:40.495Z,7.17
2023-04-03T17:04:09.412Z,7.93
2023-04-03T17:06:36.938Z,8.10
2023-04-03T17:09:04.735Z,8.43
2023-04-03T17:11:32.375Z,8.93
2023-04-03T17:14:00.411Z,7.40
2023-04-03T17:16:28.555Z,7.53
2023-04-03T17:18:56.515Z,7.70
2023-04-03T17:21:25.687Z,8.30
2023-04-03T17:23:58.336Z,9.00
2023-04-03T17:26:26.542Z,9.00
2023-04-03T17:28:54.326Z,6.83
2023-04-03T17:31:21.921Z,6.60
2023-04-03T17:33:49.458Z,8.17
2023-04-03T17:36:16.975Z,6.30
2023-04-03T17:38:47.188Z,7.20
2023-04-03T17:41:14.692Z,5.63
2023-04-03T17:43:42.265Z,6.70
2023-04-03T17:46:11.619Z,7.10
2023-04-03T17:48:41.222Z,5.80
2023-04-03T17:51:10.452Z,4.77
2023-04-03T17:53:38.185Z,5.63
2023-04-03T17:56:10.845Z,6.20
2023-04-03T17:58:38.474Z,6.40
2023-04-03T18:01:10.997Z,4.73
2023-04-03T18:03:38.786Z,5.70
2023-04-03T18:06:08.511Z,6.30
2023-04-03T18:08:39.585Z,5.57
2023-04-03T18:11:07.712Z,5.17
2023-04-03T18:13:37.619Z,5.27
2023-04-03T18:16:06.014Z,4.90
2023-04-03T18:18:33.626Z,3.77
2023-04-03T18:21:01.112Z,5.57
2023-04-03T18:23:32.361Z,5.00
2023-04-03T18:26:01.166Z,4.80
2023-04-03T18:28:30.218Z,4.27
2023-04-03T18:30:59.397Z,3.47
2023-04-03T18:33:26.884Z,4.07
2023-04-03T18:35:54.401Z,3.20
2023-04-03T18:38:21.873Z,2.73
2023-04-03T18:40:50.080Z,5.80
2023-04-03T18:43:17.994Z,4.40
2023-04-03T18:45:47.067Z,5.90
2023-04-03T18:48:15.986Z,6.87
2023-04-03T18:50:43.598Z,2.60
2023-04-03T18:53:11.327Z,5.17
2023-04-03T18:55:39.054Z,3.93
2023-04-03T18:58:06.622Z,4.27
2023-04-03T19:00:34.114Z,6.17
2023-04-03T19:03:01.762Z,7.77
2023-04-03T19:05:31.379Z,8.57
2023-04-03T19:07:59.426Z,9.03
2023-04-03T19:10:27.208Z,11.97
2023-04-03T19:12:54.950Z,11.93
2023-04-03T19:15:24.324Z,12.43
2023-04-03T19:17:51.863Z,11.40
2023-04-03T19:20:20.258Z,9.57
2023-04-03T19:22:49.086Z,7.50
2023-04-03T19:25:16.786Z,7.80
2023-04-03T19:27:44.258Z,7.00
2023-04-03T19:30:13.248Z,5.13
2023-04-03T19:32:40.967Z,4.20
2023-04-03T19:35:09.466Z,3.80
2023-04-03T19:37:36.941Z,4.20
2023-04-03T19:40:07.382Z,3.83
2023-04-03T19:42:36.741Z,3.60
2023-04-03T19:45:04.665Z,3.53
2023-04-03T19:47:32.816Z,4.07
2023-04-03T19:50:00.309Z,3.00
2023-04-03T19:52:27.892Z,3.67
2023-04-03T19:54:55.379Z,4.03
2023-04-03T19:57:24.230Z,3.77
2023-04-03T19:59:51.715Z,5.67
2023-04-03T20:02:21.250Z,4.63
2023-04-03T20:04:48.855Z,4.27
2023-04-03T20:07:16.504Z,4.07
2023-04-03T20:09:44.068Z,4.17
2023-04-03T20:12:12.205Z,5.57
2023-04-03T20:14:41.028Z,5.87
2023-04-03T20:17:08.641Z,3.67
2023-04-03T20:19:36.845Z,5.17
2023-04-03T20:22:04.427Z,4.97
2023-04-03T20:24:32.332Z,5.97
2023-04-03T20:26:59.998Z,6.13
2023-04-03T20:29:27.745Z,5.00
2023-04-03T20:31:56.640Z,5.13
2023-04-03T20:34:24.380Z,6.40
2023-04-03T20:36:53.045Z,4.37
2023-04-03T20:39:23.980Z,4.90
2023-04-03T20:41:51.721Z,6.23
2023-04-03T20:44:19.718Z,5.50
2023-04-03T20:46:52.806Z,5.37
2023-04-03T20:49:22.631Z,4.97
2023-04-03T20:51:51.117Z,3.47
2023-04-03T20:54:19.058Z,3.20
2023-04-03T20:56:49.647Z,3.47
2023-04-03T20:59:18.375Z,4.83
2023-04-03T21:01:46.845Z,3.50
2023-04-03T21:04:19.592Z,5.33
2023-04-03T21:07:24.536Z,4.17
2023-04-03T21:10:29.475Z,3.63
2023-04-03T21:13:34.783Z,4.63
2023-04-03T21:16:02.867Z,7.00
2023-04-03T21:18:51.159Z,8.27
2023-04-03T21:21:20.564Z,9.97
2023-04-03T21:23:49.373Z,11.17
2023-04-03T21:26:18.350Z,16.87
2023-04-03T21:28:46.306Z,21.67
2023-04-03T21:31:15.060Z,16.53
2023-04-03T21:33:43.906Z,17.10
2023-04-03T21:36:11.373Z,21.83
2023-04-03T21:38:38.879Z,20.67
2023-04-03T21:41:06.432Z,19.60
2023-04-03T21:43:33.906Z,22.77
2023-04-03T21:46:01.890Z,19.13
2023-04-03T21:48:30.529Z,22.23
2023-04-03T21:51:06.626Z,23.70
2023-04-03T21:53:34.441Z,23.00
2023-04-03T21:56:02.456Z,20.00
2023-04-03T21:58:31.970Z,21.20
2023-04-03T22:01:08.664Z,19.10
2023-04-03T22:03:36.148Z,18.87
2023-04-03T22:06:05.548Z,14.10
2023-04-03T22:08:33.604Z,17.83
2023-04-03T22:11:02.533Z,14.93
2023-04-03T22:13:30.122Z,7.13
2023-04-03T22:15:57.742Z,16.10
2023-04-03T22:18:25.582Z,15.87
2023-04-03T22:20:53.290Z,12.50
2023-04-03T22:23:22.951Z,18.30
2023-04-03T22:26:01.199Z,16.37
2023-04-03T22:28:28.905Z,15.67
2023-04-03T22:30:57.061Z,18.30
2023-04-03T22:33:24.556Z,19.03
2023-04-03T22:35:52.341Z,19.60
2023-04-03T22:38:19.830Z,19.77
2023-04-03T22:40:49.130Z,18.53
2023-04-03T22:43:16.736Z,18.30
2023-04-03T22:45:50.811Z,17.83
2023-04-03T22:48:18.501Z,17.13
2023-04-03T22:50:46.901Z,13.00
2023-04-03T22:53:14.372Z,16.53
2023-04-03T22:55:42.050Z,17.17
2023-04-03T22:58:10.884Z,12.83
2023-04-03T23:00:38.488Z,13.20
2023-04-03T23:03:06.161Z,10.97
2023-04-03T23:05:33.711Z,6.80
2023-04-03T23:08:01.367Z,4.63
2023-04-03T23:10:28.893Z,4.33
2023-04-03T23:12:56.347Z,3.43
2023-04-03T23:15:25.128Z,7.17
2023-04-03T23:17:52.635Z,4.57
2023-04-03T23:20:20.198Z,3.53
2023-04-03T23:22:47.663Z,3.53
2023-04-03T23:25:15.322Z,3.87
2023-04-03T23:27:42.780Z,3.10
2023-04-03T23:30:11.478Z,3.13
2023-04-03T23:32:40.372Z,3.43
2023-04-03T23:35:08.537Z,4.37
2023-04-03T23:37:36.279Z,2.87
2023-04-03T23:40:03.759Z,4.27
2023-04-03T23:42:31.287Z,3.27
2023-04-03T23:44:58.765Z,4.07
2023-04-03T23:47:26.394Z,4.57
2023-04-03T23:49:55.424Z,4.40
2023-04-03T23:52:22.914Z,4.27
2023-04-03T23:54:50.507Z,4.53
2023-04-03T23:57:17.988Z,4.60
2023-04-03T23:59:45.476Z,3.77
